Time;durP1;ratioP1;P1;durP2;ratioP2;P2;SDS_P1;SDS_P2;PMS_P1;PMS_P2;Temp;Humidity;BMP_temperature;BMP_pressure;BME280_temperature;BME280_humidity;BME280_pressure;Samples;Min_cycle;Max_cycle;Signal;HPM_P1;HPM_P2
2022/09/15 00:00:28;;;;;;;9.35;2.88;;;20.90;61.60;;;;;;4953630;29;20028;-70
2022/09/15 00:02:54;;;;;;;7.00;2.80;;;20.80;61.60;;;;;;4954518;28;20212;-71
2022/09/15 00:05:20;;;;;;;7.93;2.78;;;20.80;61.60;;;;;;4954196;29;20467;-70
2022/09/15 00:07:46;;;;;;;6.95;2.78;;;20.90;61.70;;;;;;4954620;29;20613;-70
2022/09/15 00:10:12;;;;;;;7.43;2.67;;;20.90;61.60;;;;;;4953320;29;20031;-70
2022/09/15 00:12:38;;;;;;;7.80;3.10;;;20.90;61.60;;;;;;4954371;29;20574;-71
2022/09/15 00:15:05;;;;;;;5.18;2.72;;;20.90;61.60;;;;;;4954032;29;20431;-70
2022/09/15 00:17:31;;;;;;;9.95;3.25;;;20.90;62.10;;;;;;4937085;29;20122;-71
2022/09/15 00:19:57;;;;;;;10.00;2.92;;;20.90;61.50;;;;;;4954389;28;20102;-71
2022/09/15 00:22:24;;;;;;;8.75;3.03;;;20.90;61.50;;;;;;4954211;29;20027;-70
2022/09/15 00:24:50;;;;;;;5.57;2.80;;;20.90;61.50;;;;;;4953817;29;20130;-70
2022/09/15 00:27:16;;;;;;;7.03;2.72;;;20.90;61.50;;;;;;4954325;29;20114;-70
2022/09/15 00:29:42;;;;;;;12.63;3.22;;;20.90;61.60;;;;;;4952947;29;20108;-70
2022/09/15 00:32:07;;;;;;;6.47;2.78;;;20.90;61.60;;;;;;4954056;29;20559;-70
2022/09/15 00:34:33;;;;;;;7.40;3.03;;;20.90;61.60;;;;;;4953760;29;20479;-69
2022/09/15 00:36:59;;;;;;;6.70;2.80;;;20.90;61.60;;;;;;4953917;29;20039;-68
2022/09/15 00:39:25;;;;;;;7.38;2.65;;;20.90;61.50;;;;;;4954189;29;20098;-68
2022/09/15 00:41:51;;;;;;;9.40;2.65;;;20.90;61.50;;;;;;4952850;29;20035;-69
2022/09/15 00:44:34;;;;;;;6.90;2.63;;;20.90;61.50;;;;;;4953846;29;20030;-70
2022/09/15 00:47:01;;;;;;;8.50;3.10;;;20.90;61.50;;;;;;4936003;29;20509;-70
2022/09/15 00:49:32;;;;;;;6.95;2.60;;;20.90;61.60;;;;;;4952670;29;20038;-70
2022/09/15 00:51:58;;;;;;;7.63;3.13;;;20.90;61.60;;;;;;4953879;28;20038;-70
2022/09/15 00:54:46;;;;;;;10.20;2.92;;;20.90;61.60;;;;;;4952238;29;20035;-70
2022/09/15 00:57:24;;;;;;;5.50;2.38;;;20.90;61.60;;;;;;4952533;29;20038;-70
2022/09/15 00:59:52;;;;;;;6.32;2.47;;;20.90;61.60;;;;;;4953799;29;20039;-70
2022/09/15 01:02:27;;;;;;;7.82;2.70;;;20.80;61.60;;;;;;4953678;29;20398;-70
2022/09/15 01:04:56;;;;;;;9.88;3.17;;;20.80;62.20;;;;;;4953450;29;20424;-70
2022/09/15 01:07:46;;;;;;;6.72;2.60;;;20.80;61.70;;;;;;4952627;29;20541;-70
2022/09/15 01:10:18;;;;;;;;;;;20.80;61.70;;;;;;4953745;29;20454;-70
2022/09/15 01:12:44;;;;;;;7.30;2.67;;;20.80;61.80;;;;;;4952515;29;19964;-69
2022/09/15 01:15:10;;;;;;;5.53;2.45;;;20.80;61.80;;;;;;4953291;29;20058;-70
2022/09/15 01:17:42;;;;;;;4.88;2.53;;;20.80;61.80;;;;;;4953526;29;20066;-70
2022/09/15 01:20:33;;;;;;;7.45;2.80;;;20.80;61.80;;;;;;4952641;29;20035;-70
2022/09/15 01:23:29;;;;;;;7.88;2.53;;;20.80;61.80;;;;;;4953487;29;20066;-70
2022/09/15 01:26:28;;;;;;;9.95;3.03;;;20.80;61.80;;;;;;4953707;29;20050;-70
2022/09/15 01:29:12;;;;;;;9.38;2.50;;;20.80;61.80;;;;;;4952362;29;20118;-70
2022/09/15 01:34:43;;;;;;;8.25;2.60;;;20.80;61.90;;;;;;4953213;29;20024;-70
2022/09/15 01:37:16;;;;;;;8.38;2.65;;;20.80;61.90;;;;;;4953416;29;20031;-70
2022/09/15 01:39:46;;;;;;;8.80;2.55;;;20.80;61.90;;;;;;4953395;29;20442;-70
2022/09/15 01:42:15;;;;;;;6.95;2.50;;;20.80;61.90;;;;;;4953424;29;20034;-70
2022/09/15 01:44:53;;;;;;;6.35;2.42;;;20.80;61.90;;;;;;4951771;29;20028;-70
2022/09/15 01:47:21;;;;;;;6.20;2.30;;;20.80;61.90;;;;;;4953429;29;20039;-70
2022/09/15 01:49:56;;;;;;;5.18;2.40;;;20.80;61.80;;;;;;4953315;29;20384;-70
2022/09/15 01:52:23;;;;;;;6.28;2.00;;;20.80;61.90;;;;;;4953371;29;20506;-70
2022/09/15 01:54:59;;;;;;;6.40;2.33;;;20.80;61.90;;;;;;4951798;29;20036;-70
2022/09/15 01:57:26;;;;;;;7.20;2.35;;;20.80;61.90;;;;;;4952173;28;20216;-70
2022/09/15 01:59:54;;;;;;;7.05;2.58;;;20.80;61.90;;;;;;4939417;29;20027;-70
2022/09/15 02:02:21;;;;;;;6.68;2.58;;;20.70;61.80;;;;;;4956625;29;20046;-70
2022/09/15 02:04:56;;;;;;;7.70;2.63;;;20.80;61.90;;;;;;4956390;29;20114;-70
2022/09/15 02:07:46;;;;;;;7.38;2.30;;;20.80;61.90;;;;;;4956732;29;20027;-69
2022/09/15 02:10:37;;;;;;;11.45;3.67;;;20.80;61.80;;;;;;4955829;29;20447;-70
2022/09/15 02:13:10;;;;;;;9.88;2.33;;;20.80;61.90;;;;;;4956606;29;20035;-70
2022/09/15 02:15:50;;;;;;;8.27;2.95;;;20.70;61.80;;;;;;4955307;29;20118;-70
2022/09/15 02:18:55;;;;;;;6.75;2.33;;;20.80;62.40;;;;;;4956417;29;20479;-70
2022/09/15 02:21:32;;;;;;;8.02;2.30;;;20.80;61.90;;;;;;4945619;29;20403;-71
2022/09/15 02:24:06;;;;;;;9.63;2.42;;;20.70;61.80;;;;;;4954889;29;20447;-70
2022/09/15 02:26:34;;;;;;;6.97;2.67;;;20.80;61.80;;;;;;4956350;28;20035;-70
2022/09/15 02:29:05;;;;;;;7.85;2.40;;;20.80;61.80;;;;;;4955099;29;20035;-70
2022/09/15 02:31:33;;;;;;;5.57;2.33;;;20.80;61.80;;;;;;4956626;29;20401;-70
2022/09/15 02:34:08;;;;;;;5.53;2.17;;;20.80;61.80;;;;;;4954743;29;20034;-71
2022/09/15 02:36:35;;;;;;;6.93;2.40;;;20.70;61.80;;;;;;4956072;29;20027;-70
2022/09/15 02:39:05;;;;;;;6.43;2.47;;;20.80;61.80;;;;;;4955201;29;20027;-68
2022/09/15 02:41:34;;;;;;;7.70;2.75;;;20.80;61.80;;;;;;4955071;29;20035;-70
2022/09/15 02:43:59;;;;;;;9.20;2.78;;;20.70;61.80;;;;;;4955638;29;20089;-70
2022/09/15 02:46:25;;;;;;;7.63;2.53;;;20.80;61.80;;;;;;4955889;29;20438;-70
2022/09/15 02:48:52;;;;;;;7.72;2.42;;;20.80;61.80;;;;;;4955925;29;20049;-69
2022/09/15 02:51:18;;;;;;;6.57;2.40;;;20.80;61.70;;;;;;4954688;29;20027;-70
2022/09/15 02:53:45;;;;;;;4.88;2.08;;;20.80;61.60;;;;;;4955549;29;20098;-69
2022/09/15 02:56:11;;;;;;;7.00;2.17;;;20.80;61.60;;;;;;4955703;29;20377;-69
2022/09/15 02:58:37;;;;;;;7.47;2.63;;;20.80;61.60;;;;;;4954451;29;20499;-69
2022/09/15 03:01:04;;;;;;;6.55;2.67;;;20.80;61.60;;;;;;4955865;29;20035;-69
2022/09/15 03:03:31;;;;;;;6.18;2.03;;;20.80;61.60;;;;;;4954322;29;20039;-70
2022/09/15 03:06:15;;;;;;;5.47;2.20;;;20.70;61.50;;;;;;4954315;29;20034;-70
2022/09/15 03:08:46;;;;;;;7.82;2.35;;;20.80;61.50;;;;;;4955585;28;20038;-70
2022/09/15 03:11:12;;;;;;;7.07;2.35;;;20.80;61.60;;;;;;4954527;28;20058;-70
2022/09/15 03:13:38;;;;;;;5.78;2.30;;;20.80;61.60;;;;;;4954120;29;20668;-70
2022/09/15 03:16:12;;;;;;;8.20;2.55;;;20.70;61.50;;;;;;4955405;29;20542;-70
2022/09/15 03:18:38;;;;;;;7.57;2.47;;;20.80;61.50;;;;;;4955400;29;20487;-70
2022/09/15 03:21:06;;;;;;;7.10;2.50;;;20.80;61.50;;;;;;4954511;29;20036;-70
2022/09/15 03:23:32;;;;;;;7.57;2.42;;;20.80;61.50;;;;;;4953846;29;20023;-70
2022/09/15 03:25:58;;;;;;;6.38;2.40;;;20.80;61.50;;;;;;4955281;28;20118;-70
2022/09/15 03:28:26;;;;;;;6.35;2.55;;;20.80;61.50;;;;;;4955208;29;20123;-70
2022/09/15 03:30:53;;;;;;;7.18;2.47;;;20.70;61.50;;;;;;4955201;29;20023;-70
2022/09/15 03:33:19;;;;;;;8.48;2.65;;;20.70;61.50;;;;;;4954823;28;20036;-70
2022/09/15 03:35:49;;;;;;;6.70;2.80;;;20.70;61.60;;;;;;4954962;29;20042;-70
2022/09/15 03:38:15;;;;;;;6.28;2.42;;;20.70;61.60;;;;;;4954848;29;20031;-70
2022/09/15 03:40:42;;;;;;;6.05;2.70;;;20.70;61.60;;;;;;4953858;29;20023;-70
2022/09/15 03:43:09;;;;;;;4.75;2.17;;;20.70;61.60;;;;;;4954806;29;20047;-70
2022/09/15 03:45:36;;;;;;;7.32;2.45;;;20.70;61.60;;;;;;4953441;29;20039;-70
2022/09/15 03:48:06;;;;;;;7.47;3.10;;;20.70;61.70;;;;;;4953795;29;20483;-70
2022/09/15 03:50:33;;;;;;;7.13;2.53;;;20.70;61.70;;;;;;4954776;29;20023;-69
2022/09/15 03:53:02;;;;;;;8.73;2.63;;;20.70;61.70;;;;;;4954634;29;20042;-69
2022/09/15 03:55:29;;;;;;;6.67;2.70;;;20.70;61.60;;;;;;4954465;29;20039;-70
2022/09/15 03:57:54;;;;;;;8.95;2.63;;;20.70;61.70;;;;;;4953385;29;20034;-70
2022/09/15 04:00:21;;;;;;;7.35;2.80;;;20.70;61.70;;;;;;4954653;28;20020;-69
2022/09/15 04:02:47;;;;;;;7.78;3.00;;;20.70;61.60;;;;;;4954570;29;20086;-70
2022/09/15 04:05:13;;;;;;;6.13;2.75;;;20.70;61.70;;;;;;4954073;29;20035;-70
2022/09/15 04:07:39;;;;;;;8.93;3.08;;;20.70;61.60;;;;;;4953593;29;20045;-69
2022/09/15 04:10:06;;;;;;;9.23;2.95;;;20.70;61.70;;;;;;4954463;28;20399;-70
2022/09/15 04:12:33;;;;;;;5.82;2.80;;;20.70;61.60;;;;;;4954516;29;20039;-70
2022/09/15 04:14:59;;;;;;;8.05;3.00;;;20.70;61.70;;;;;;4952778;29;20547;-70
2022/09/15 04:17:25;;;;;;;7.40;2.63;;;20.70;61.60;;;;;;4953113;29;20524;-70
2022/09/15 04:19:51;;;;;;;7.88;2.88;;;20.70;61.60;;;;;;4954716;29;20027;-70
2022/09/15 04:22:17;;;;;;;5.95;2.53;;;20.60;61.60;;;;;;4954110;28;20129;-70
2022/09/15 04:24:43;;;;;;;9.05;3.10;;;20.70;61.70;;;;;;4952811;29;20053;-70
2022/09/15 04:27:09;;;;;;;7.47;2.70;;;20.70;61.70;;;;;;4954374;29;20494;-70
2022/09/15 04:29:35;;;;;;;7.97;2.53;;;20.70;61.60;;;;;;4954228;29;20027;-69
2022/09/15 04:32:01;;;;;;;7.05;2.60;;;20.70;61.60;;;;;;4952986;29;20038;-70
2022/09/15 04:34:26;;;;;;;7.05;2.53;;;20.70;61.60;;;;;;4953608;29;20035;-70
2022/09/15 04:36:52;;;;;;;6.97;2.70;;;20.70;61.60;;;;;;4954010;29;20027;-70
2022/09/15 04:39:18;;;;;;;8.98;2.67;;;20.70;61.60;;;;;;4954034;29;20019;-70
2022/09/15 04:41:44;;;;;;;8.43;2.50;;;20.60;61.60;;;;;;4952963;29;20028;-70
2022/09/15 04:44:10;;;;;;;8.50;2.72;;;20.70;61.70;;;;;;4952688;29;20023;-70
2022/09/15 04:46:36;;;;;;;7.95;2.97;;;20.70;61.70;;;;;;4954020;29;20046;-70
2022/09/15 04:49:02;;;;;;;7.35;2.60;;;20.60;61.60;;;;;;4953779;29;20027;-70
2022/09/15 04:51:28;;;;;;;7.32;2.55;;;20.70;61.60;;;;;;4953945;29;20495;-71
2022/09/15 04:53:54;;;;;;;7.90;2.50;;;20.70;61.60;;;;;;4953535;29;20042;-71
2022/09/15 04:56:22;;;;;;;7.70;2.60;;;20.60;61.60;;;;;;4953904;29;20447;-71
2022/09/15 04:58:56;;;;;;;9.20;2.90;;;20.70;61.70;;;;;;4953838;29;20122;-70
2022/09/15 05:01:29;;;;;;;7.70;2.97;;;20.60;61.60;;;;;;4953751;29;20055;-70
2022/09/15 05:03:55;;;;;;;8.57;2.50;;;20.60;61.60;;;;;;4936596;29;20023;-71
2022/09/15 05:06:25;;;;;;;9.60;3.22;;;20.60;61.60;;;;;;4933538;29;20373;-70
2022/09/15 05:08:54;;;;;;;7.47;2.70;;;20.60;61.60;;;;;;4933773;29;20023;-70
2022/09/15 05:11:21;;;;;;;8.07;2.70;;;20.60;61.50;;;;;;4934295;29;20067;-70
2022/09/15 05:13:47;;;;;;;7.07;2.65;;;20.60;61.60;;;;;;4932578;29;20028;-69
2022/09/15 05:16:15;;;;;;;5.57;2.60;;;20.60;61.50;;;;;;4934304;29;20027;-69
2022/09/15 05:18:42;;;;;;;9.55;3.00;;;20.60;61.60;;;;;;4934363;29;20114;-69
2022/09/15 05:21:10;;;;;;;6.88;2.70;;;20.60;61.60;;;;;;4933202;29;20032;-70
2022/09/15 05:23:36;;;;;;;8.95;3.05;;;20.60;61.70;;;;;;4932965;29;20127;-70
2022/09/15 05:26:05;;;;;;;9.68;2.72;;;20.60;61.60;;;;;;4934237;29;20107;-70
2022/09/15 05:28:35;;;;;;;8.35;2.53;;;20.70;61.60;;;;;;4933092;29;20507;-69
2022/09/15 05:31:06;;;;;;;7.57;2.97;;;20.60;61.50;;;;;;4933975;29;20395;-69
2022/09/15 05:33:33;;;;;;;7.20;2.92;;;20.70;61.50;;;;;;4935333;29;20024;-70
2022/09/15 05:35:59;;;;;;;7.53;2.58;;;20.70;61.50;;;;;;4938176;29;20039;-70
2022/09/15 05:38:28;;;;;;;8.45;3.25;;;20.70;61.40;;;;;;4938196;29;20028;-70
2022/09/15 05:41:00;;;;;;;6.15;2.90;;;20.70;61.50;;;;;;4936859;29;20433;-70
2022/09/15 05:43:25;;;;;;;6.55;2.80;;;20.70;61.40;;;;;;4937587;29;20028;-69
2022/09/15 05:45:54;;;;;;;5.82;2.70;;;20.70;61.50;;;;;;4957418;23;20047;-74
2022/09/15 05:48:20;;;;;;;7.40;2.83;;;20.70;61.50;;;;;;4948831;29;20395;-74
2022/09/15 05:50:53;;;;;;;6.72;2.83;;;20.70;61.40;;;;;;4939619;29;20028;-74
2022/09/15 05:53:20;;;;;;;8.90;3.15;;;20.70;61.50;;;;;;4936593;29;20039;-73
2022/09/15 05:55:46;;;;;;;11.55;3.38;;;20.70;61.50;;;;;;4936591;29;20039;-74
2022/09/15 05:58:13;;;;;;;7.00;3.00;;;20.70;61.50;;;;;;4936540;29;20036;-74
2022/09/15 06:00:40;;;;;;;10.05;3.65;;;20.70;61.50;;;;;;4936620;29;20043;-74
2022/09/15 06:03:11;;;;;;;6.60;3.25;;;20.70;61.40;;;;;;4937365;29;20031;-75
2022/09/15 06:05:37;;;;;;;7.30;3.13;;;20.70;61.50;;;;;;4937576;29;20136;-74
2022/09/15 06:08:03;;;;;;;9.93;3.33;;;20.70;61.50;;;;;;4936636;29;20070;-74
2022/09/15 06:10:29;;;;;;;8.70;2.97;;;20.70;61.40;;;;;;4921146;29;20157;-74
2022/09/15 06:12:55;;;;;;;9.55;3.20;;;20.70;61.40;;;;;;4937747;29;20032;-74
2022/09/15 06:15:22;;;;;;;6.18;3.13;;;20.70;61.50;;;;;;4936286;29;20031;-74
2022/09/15 06:17:48;;;;;;;8.20;2.75;;;20.60;61.40;;;;;;4937756;29;20028;-74
2022/09/15 06:20:14;;;;;;;5.70;2.58;;;20.70;61.50;;;;;;4937738;29;20043;-74
2022/09/15 06:22:40;;;;;;;7.05;2.88;;;20.60;61.40;;;;;;4936303;29;20034;-74
2022/09/15 06:25:06;;;;;;;5.88;2.40;;;20.60;61.50;;;;;;4936822;29;20103;-75
2022/09/15 06:27:32;;;;;;;7.10;2.90;;;20.60;61.50;;;;;;4937409;29;20042;-74
2022/09/15 06:29:58;;;;;;;8.18;2.75;;;20.60;61.50;;;;;;4937126;29;20028;-74
2022/09/15 06:32:24;;;;;;;6.22;2.63;;;20.60;61.50;;;;;;4936278;29;20114;-75
2022/09/15 06:34:50;;;;;;;7.47;2.45;;;20.60;61.50;;;;;;4936667;29;20031;-75
2022/09/15 06:37:16;;;;;;;8.90;3.00;;;20.60;61.50;;;;;;4935799;29;20082;-75
2022/09/15 06:39:42;;;;;;;6.53;2.38;;;20.60;61.50;;;;;;4935780;29;20024;-74
2022/09/15 06:42:09;;;;;;;7.00;2.50;;;20.60;62.10;;;;;;4937028;29;20027;-75
2022/09/15 06:44:35;;;;;;;5.97;2.45;;;20.60;61.50;;;;;;4936439;28;20032;-75
2022/09/15 06:47:01;;;;;;;7.13;2.50;;;20.60;61.50;;;;;;4936581;29;20544;-75
2022/09/15 06:49:27;;;;;;;7.47;2.42;;;20.60;61.50;;;;;;4936574;29;20110;-75
2022/09/15 06:51:53;;;;;;;6.80;2.50;;;20.60;61.60;;;;;;4936783;29;20071;-75
2022/09/15 06:54:19;;;;;;;7.05;2.58;;;20.60;61.50;;;;;;4936402;29;20107;-75
2022/09/15 06:56:46;;;;;;;8.40;2.55;;;20.60;61.60;;;;;;4935578;29;20123;-75
2022/09/15 06:59:13;;;;;;;8.55;2.80;;;20.60;61.50;;;;;;4935538;29;20485;-75
2022/09/15 07:01:40;;;;;;;8.52;2.72;;;20.60;61.60;;;;;;4936446;29;20106;-74
2022/09/15 07:04:08;;;;;;;7.95;2.60;;;20.60;61.50;;;;;;4936169;29;20035;-75
2022/09/15 07:06:36;;;;;;;7.93;2.17;;;20.60;61.60;;;;;;4936210;29;20032;-75
2022/09/15 07:09:02;;;;;;;5.70;2.50;;;20.60;61.60;;;;;;4936439;29;20111;-75
2022/09/15 07:11:28;;;;;;;7.25;2.45;;;20.60;61.50;;;;;;4935144;29;20040;-75
2022/09/15 07:13:54;;;;;;;9.63;2.80;;;20.60;61.70;;;;;;4936337;29;20027;-75
2022/09/15 07:16:21;;;;;;;8.55;2.75;;;20.60;61.60;;;;;;4934913;29;20031;-74
2022/09/15 07:18:48;;;;;;;10.32;2.55;;;20.60;61.60;;;;;;4937275;29;20461;-75
2022/09/15 07:21:17;;;;;;;7.05;2.17;;;20.60;61.50;;;;;;4939488;29;20114;-74
2022/09/15 07:23:43;;;;;;;6.50;2.20;;;20.60;61.50;;;;;;4936636;29;20039;-75
2022/09/15 07:26:11;;;;;;;8.90;2.50;;;20.60;61.60;;;;;;4936054;29;20395;-75
2022/09/15 07:28:38;;;;;;;5.10;2.00;;;20.60;61.50;;;;;;4936028;29;20027;-75
2022/09/15 07:31:06;;;;;;;6.65;2.33;;;20.60;61.50;;;;;;4936160;29;20488;-75
2022/09/15 07:33:33;;;;;;;5.15;2.50;;;20.60;61.50;;;;;;4935666;29;20028;-75
2022/09/15 07:36:06;;;;;;;8.20;2.70;;;20.60;61.50;;;;;;4934675;29;20385;-75
2022/09/15 07:38:33;;;;;;;9.50;2.33;;;20.60;61.50;;;;;;4935842;29;20118;-75
2022/09/15 07:41:25;;;;;;;8.60;2.40;;;20.60;61.60;;;;;;4935884;29;20034;-75
2022/09/15 07:43:52;;;;;;;6.25;2.00;;;20.60;61.40;;;;;;4935842;29;20035;-75
2022/09/15 07:46:19;;;;;;;8.10;2.30;;;20.60;61.50;;;;;;4935515;29;20027;-75
2022/09/15 07:48:47;;;;;;;8.45;2.42;;;20.60;61.60;;;;;;4934473;29;20024;-75
2022/09/15 07:51:14;;;;;;;5.45;2.17;;;20.50;61.50;;;;;;4934373;29;20054;-75
2022/09/15 07:53:40;;;;;;;6.20;2.30;;;20.50;61.30;;;;;;4935281;29;20114;-75
2022/09/15 07:56:06;;;;;;;3.88;2.05;;;20.60;61.50;;;;;;4933892;29;20031;-75
2022/09/15 07:58:33;;;;;;;5.07;1.95;;;20.60;61.50;;;;;;4935470;29;20499;-75
2022/09/15 08:01:15;;;;;;;6.32;2.30;;;20.60;61.50;;;;;;4935401;29;20078;-75
2022/09/15 08:03:43;;;;;;;8.40;2.03;;;20.60;61.50;;;;;;4935247;29;20167;-75
2022/09/15 08:06:10;;;;;;;5.80;2.08;;;20.60;61.30;;;;;;4934280;29;20031;-75
2022/09/15 08:08:40;;;;;;;8.05;2.47;;;20.60;61.30;;;;;;4935337;29;20035;-75
2022/09/15 08:11:07;;;;;;;7.05;2.63;;;20.60;61.30;;;;;;4935348;29;20053;-75
2022/09/15 08:13:33;;;;;;;4.82;2.08;;;20.70;61.30;;;;;;4933930;29;20050;-75
2022/09/15 08:16:31;;;;;;;6.78;2.30;;;20.60;61.20;;;;;;4935486;29;20027;-75
2022/09/15 08:18:57;;;;;;;6.07;2.25;;;20.70;61.30;;;;;;4903247;29;20040;-74
2022/09/15 08:21:23;;;;;;;7.15;2.55;;;20.70;61.40;;;;;;4935422;29;20030;-74
2022/09/15 08:23:51;;;;;;;6.05;2.10;;;20.70;61.30;;;;;;4935081;29;20063;-74
2022/09/15 08:26:17;;;;;;;5.45;2.13;;;20.70;61.30;;;;;;4935337;29;20063;-75
2022/09/15 08:28:43;;;;;;;7.97;2.50;;;20.70;61.20;;;;;;4935014;29;20035;-75
2022/09/15 08:31:11;;;;;;;6.85;2.03;;;20.70;61.20;;;;;;4917990;29;20039;-75
2022/09/15 08:33:37;;;;;;;8.07;2.22;;;20.70;61.20;;;;;;4934775;29;20038;-75
2022/09/15 08:36:06;;;;;;;7.68;2.08;;;20.70;61.00;;;;;;4935089;29;20036;-75
2022/09/15 08:38:33;;;;;;;4.47;2.00;;;20.70;61.10;;;;;;4934792;29;20621;-74
2022/09/15 08:41:05;;;;;;;8.15;2.20;;;20.70;61.20;;;;;;4934870;29;20030;-75
2022/09/15 08:43:39;;;;;;;6.97;2.10;;;20.70;61.20;;;;;;4934393;29;20115;-75
2022/09/15 08:46:10;;;;;;;5.80;2.20;;;20.70;61.20;;;;;;4933457;29;20062;-75
2022/09/15 08:48:42;;;;;;;7.10;2.05;;;20.70;61.30;;;;;;4935171;29;20420;-75
2022/09/15 08:51:20;;;;;;;8.07;2.42;;;20.70;61.20;;;;;;4934894;29;20114;-75
2022/09/15 08:53:51;;;;;;;6.35;1.98;;;20.70;61.20;;;;;;4934418;29;20028;-74
2022/09/15 08:56:18;;;;;;;5.20;1.92;;;20.70;61.30;;;;;;4934761;29;20048;-75
2022/09/15 08:58:44;;;;;;;9.35;2.38;;;20.70;61.70;;;;;;4934673;29;20122;-74
2022/09/15 09:01:18;;;;;;;5.10;1.98;;;20.70;61.40;;;;;;4934622;29;20020;-74
2022/09/15 09:04:20;;;;;;;7.57;2.00;;;20.70;61.40;;;;;;4917185;29;20503;-74
2022/09/15 09:06:52;;;;;;;5.88;2.10;;;20.70;61.50;;;;;;4933609;29;20048;-74
2022/09/15 09:09:37;;;;;;;6.72;2.30;;;20.60;61.30;;;;;;4936044;29;20392;-75
2022/09/15 09:12:12;;;;;;;7.32;2.33;;;20.60;61.30;;;;;;4938574;29;20031;-75
2022/09/15 09:15:15;;;;;;;5.18;1.73;;;20.60;61.30;;;;;;4938243;29;20091;-75
2022/09/15 09:18:16;;;;;;;5.65;1.92;;;20.60;61.30;;;;;;4938287;29;20035;-75
2022/09/15 09:21:04;;;;;;;7.40;2.17;;;20.60;61.40;;;;;;4938248;29;20522;-73
2022/09/15 09:23:36;;;;;;;6.40;1.90;;;20.60;61.30;;;;;;4944905;29;20047;-74
2022/09/15 09:26:02;;;;;;;4.75;1.95;;;20.60;61.40;;;;;;4939690;29;20040;-74
2022/09/15 09:28:31;;;;;;;4.88;2.08;;;20.60;61.30;;;;;;4938193;29;20088;-74
2022/09/15 09:31:06;;;;;;;6.45;2.17;;;20.60;61.40;;;;;;4938279;29;20032;-75
2022/09/15 09:33:40;;;;;;;5.32;1.98;;;20.60;61.30;;;;;;4937760;29;20042;-75
2022/09/15 09:36:09;;;;;;;4.18;1.90;;;20.60;61.40;;;;;;4938027;29;20103;-74
2022/09/15 09:38:40;;;;;;;5.55;2.17;;;20.60;61.30;;;;;;4937975;29;20036;-74
2022/09/15 09:41:15;;;;;;;5.53;2.08;;;20.60;61.40;;;;;;4936920;29;20050;-75
2022/09/15 09:43:43;;;;;;;3.22;1.80;;;20.60;61.40;;;;;;4937674;29;20373;-74
2022/09/15 09:46:17;;;;;;;6.28;2.20;;;20.60;61.20;;;;;;4936692;29;20301;-74
2022/09/15 09:48:58;;;;;;;4.43;1.90;;;20.60;61.30;;;;;;4936557;29;20035;-74
2022/09/15 09:51:51;;;;;;;4.25;1.98;;;20.60;61.20;;;;;;4936881;29;20092;-74
2022/09/15 09:54:19;;;;;;;5.45;2.20;;;20.60;61.20;;;;;;4937739;29;20055;-75
2022/09/15 09:56:49;;;;;;;5.85;1.92;;;20.60;61.20;;;;;;4936521;29;20057;-76
2022/09/15 09:59:39;;;;;;;5.95;1.95;;;20.60;61.20;;;;;;4937774;29;20090;-76
2022/09/15 10:02:11;;;;;;;5.03;1.70;;;20.70;61.30;;;;;;4936625;29;20407;-75
2022/09/15 10:04:49;;;;;;;4.28;2.00;;;20.60;61.20;;;;;;4937323;29;20035;-75
2022/09/15 10:07:18;;;;;;;3.80;2.00;;;20.60;61.30;;;;;;4937988;29;20059;-74
2022/09/15 10:09:59;;;;;;;6.22;2.05;;;20.70;61.40;;;;;;4936409;29;20161;-75
2022/09/15 10:12:48;;;;;;;4.60;2.10;;;20.70;61.50;;;;;;4937507;29;20106;-74
2022/09/15 10:15:28;;;;;;;6.55;2.03;;;20.70;61.50;;;;;;4937198;29;20051;-75
2022/09/15 10:17:55;;;;;;;3.80;1.80;;;20.70;61.50;;;;;;4936775;29;20496;-75
2022/09/15 10:20:31;;;;;;;6.22;2.08;;;20.60;61.20;;;;;;4936508;29;20031;-75
2022/09/15 10:23:05;;;;;;;5.50;2.15;;;20.60;61.20;;;;;;4937411;29;20019;-76
2022/09/15 10:25:35;;;;;;;5.68;2.05;;;20.70;61.10;;;;;;4936094;29;20040;-75
2022/09/15 10:28:18;;;;;;;6.07;1.95;;;20.60;60.90;;;;;;4936051;29;20042;-75
2022/09/15 10:31:30;;;;;;;4.10;1.60;;;20.60;60.90;;;;;;4937229;29;20404;-75
2022/09/15 10:33:56;;;;;;;5.75;2.00;;;20.60;60.70;;;;;;4877969;29;20037;-75
2022/09/15 10:36:28;;;;;;;8.02;1.90;;;20.70;60.90;;;;;;4925826;29;20047;-76
2022/09/15 10:39:02;;;;;;;7.55;2.17;;;20.70;60.80;;;;;;4935735;29;20035;-75
2022/09/15 10:41:30;;;;;;;4.88;1.90;;;20.70;60.80;;;;;;4919697;29;20568;-76
2022/09/15 10:44:24;;;;;;;6.40;2.05;;;20.70;60.50;;;;;;4936539;29;20028;-76
2022/09/15 10:47:18;;;;;;;5.28;1.77;;;20.70;60.40;;;;;;4919581;29;20043;-74
2022/09/15 10:49:52;;;;;;;4.38;1.90;;;20.70;60.40;;;;;;4935736;29;20404;-76
2022/09/15 10:52:47;;;;;;;5.57;2.05;;;20.70;60.20;;;;;;4936932;29;20067;-75
2022/09/15 10:55:19;;;;;;;4.97;1.70;;;20.70;59.90;;;;;;4933473;29;20051;-74
2022/09/15 10:58:04;;;;;;;6.57;1.77;;;20.70;59.90;;;;;;4919685;29;20035;-75
2022/09/15 11:00:46;;;;;;;5.03;1.73;;;20.70;59.70;;;;;;4936720;29;20397;-75
2022/09/15 11:03:31;;;;;;;4.43;1.80;;;20.70;59.70;;;;;;4936406;29;20047;-75
2022/09/15 11:06:25;;;;;;;7.72;2.00;;;20.70;59.70;;;;;;4936374;29;20039;-76
2022/09/15 11:09:04;;;;;;;5.65;1.80;;;20.70;59.50;;;;;;4935433;29;20514;-74
2022/09/15 11:11:41;;;;;;;4.65;1.75;;;20.70;59.40;;;;;;4935306;29;20115;-75
2022/09/15 11:14:25;;;;;;;3.83;1.70;;;20.70;59.40;;;;;;4934750;29;20047;-75
2022/09/15 11:16:57;;;;;;;5.57;2.10;;;20.70;59.50;;;;;;4935984;29;20091;-76
2022/09/15 11:19:36;;;;;;;4.38;2.10;;;20.70;59.30;;;;;;4937613;29;20050;-75
2022/09/15 11:22:21;;;;;;;5.32;1.80;;;20.70;59.20;;;;;;4943125;29;20028;-75
2022/09/15 11:24:56;;;;;;;7.03;1.90;;;20.70;59.30;;;;;;4941093;29;20024;-75
2022/09/15 11:27:29;;;;;;;5.00;1.75;;;20.70;59.10;;;;;;4939786;29;20378;-76
2022/09/15 11:30:22;;;;;;;4.22;2.00;;;20.70;59.00;;;;;;4919416;29;20165;-75
2022/09/15 11:32:54;;;;;;;5.15;1.67;;;20.70;59.00;;;;;;4935778;29;20120;-74
2022/09/15 11:35:28;;;;;;;5.95;1.90;;;20.70;59.00;;;;;;4935977;29;20036;-75
2022/09/15 11:37:58;;;;;;;5.38;1.90;;;20.70;58.90;;;;;;4935373;29;20377;-76
2022/09/15 11:40:33;;;;;;;5.22;1.88;;;20.70;58.80;;;;;;4936462;29;20102;-76
2022/09/15 11:43:23;;;;;;;8.10;2.40;;;20.70;58.80;;;;;;4936135;29;20396;-74
2022/09/15 11:45:53;;;;;;;16.33;7.05;;;20.70;59.00;;;;;;4946278;23;20055;-78
2022/09/15 11:48:41;;;;;;;11.88;4.63;;;20.60;58.80;;;;;;4948787;29;20027;-78
2022/09/15 11:51:08;;;;;;;17.52;6.50;;;20.60;58.90;;;;;;4917424;29;20059;-78
2022/09/15 11:53:45;;;;;;;15.43;5.57;;;20.60;59.00;;;;;;4916863;29;20060;-78
2022/09/15 11:56:35;;;;;;;19.02;6.53;;;20.60;58.60;;;;;;4916060;29;20404;-79
2022/09/15 11:59:18;;;;;;;14.88;4.95;;;20.60;58.90;;;;;;4916480;29;20095;-79
2022/09/15 12:02:10;;;;;;;12.25;4.55;;;20.60;58.80;;;;;;4916602;29;20039;-79
2022/09/15 12:04:57;;;;;;;15.30;4.68;;;20.60;58.70;;;;;;4915090;29;20051;-79
2022/09/15 12:07:27;;;;;;;11.52;4.22;;;20.60;58.80;;;;;;4916703;29;20111;-79
2022/09/15 12:09:55;;;;;;;11.05;3.95;;;20.60;58.90;;;;;;4917496;29;20091;-80
2022/09/15 12:12:22;;;;;;;14.43;3.90;;;20.60;58.60;;;;;;4917333;29;20091;-79
2022/09/15 12:14:50;;;;;;;12.18;4.07;;;20.60;58.80;;;;;;4916633;29;20044;-78
2022/09/15 12:17:38;;;;;;;9.98;3.50;;;20.60;58.70;;;;;;4930918;29;20062;-77
2022/09/15 12:20:27;;;;;;;10.48;3.67;;;20.60;58.70;;;;;;4899662;29;20064;-78
2022/09/15 12:23:03;;;;;;;6.25;2.80;;;20.60;58.80;;;;;;4915014;29;20132;-78
2022/09/15 12:25:54;;;;;;;11.93;3.50;;;20.60;58.60;;;;;;4915308;29;20036;-78
2022/09/15 12:28:23;;;;;;;8.73;3.40;;;20.60;58.50;;;;;;4916938;29;20051;-78
2022/09/15 12:31:27;;;;;;;8.02;2.90;;;20.60;58.40;;;;;;4916749;29;20036;-78
2022/09/15 12:33:55;;;;;;;11.40;3.28;;;20.60;58.40;;;;;;4915091;29;20032;-78
2022/09/15 12:36:43;;;;;;;12.15;3.55;;;20.60;58.50;;;;;;4899805;29;20126;-78
2022/09/15 12:39:30;;;;;;;9.05;2.80;;;20.60;58.70;;;;;;4899796;29;20064;-78
2022/09/15 12:41:59;;;;;;;9.98;2.92;;;20.60;58.30;;;;;;4916389;29;20482;-78
2022/09/15 12:44:39;;;;;;;9.13;3.15;;;20.60;58.50;;;;;;4915477;29;20102;-78
2022/09/15 12:47:16;;;;;;;10.07;3.03;;;20.60;58.50;;;;;;4915345;29;20099;-78
2022/09/15 12:49:44;;;;;;;9.23;2.95;;;20.60;58.10;;;;;;4915639;29;20039;-79
2022/09/15 12:52:11;;;;;;;9.05;2.90;;;20.60;58.40;;;;;;4900227;29;20070;-78
2022/09/15 12:54:41;;;;;;;9.40;3.10;;;20.60;58.40;;;;;;4915169;29;20067;-79
2022/09/15 12:57:15;;;;;;;;;;;20.60;58.30;;;;;;4915854;29;20031;-79
2022/09/15 12:59:40;;;;;;;8.82;2.80;;;20.60;58.40;;;;;;4915614;29;19911;-78
2022/09/15 13:02:43;;;;;;;7.35;2.67;;;20.60;58.30;;;;;;4915879;29;20024;-79
2022/09/15 13:05:11;;;;;;;7.25;2.53;;;20.60;58.30;;;;;;4915320;29;20552;-78
2022/09/15 13:07:55;;;;;;;11.90;2.70;;;20.60;58.10;;;;;;4930234;29;20095;-78
2022/09/15 13:10:29;;;;;;;6.80;2.72;;;20.60;58.20;;;;;;4914699;29;20075;-79
2022/09/15 13:13:13;;;;;;;9.05;2.88;;;20.60;58.20;;;;;;4914561;29;20393;-78